createdAt,value
2023-03-14T00:00:53.868Z,17.92
2023-03-14T00:03:20.973Z,17.95
2023-03-14T00:05:48.015Z,17.94
2023-03-14T00:08:14.964Z,17.98
2023-03-14T00:10:42.078Z,17.92
2023-03-14T00:13:09.142Z,17.89
2023-03-14T00:15:37.566Z,17.84
2023-03-14T00:18:04.696Z,17.88
2023-03-14T00:20:31.773Z,17.71
2023-03-14T00:22:58.666Z,17.70
2023-03-14T00:25:25.591Z,17.68
2023-03-14T00:27:54.984Z,17.58
2023-03-14T00:30:22.059Z,17.75
2023-03-14T00:32:50.422Z,17.68
2023-03-14T00:35:17.799Z,17.75
2023-03-14T00:37:44.622Z,17.85
2023-03-14T00:40:12.370Z,17.75
2023-03-14T00:45:30.189Z,17.79
2023-03-14T00:47:58.347Z,17.51
2023-03-14T00:50:25.701Z,17.41
2023-03-14T00:52:52.684Z,17.51
2023-03-14T00:55:19.539Z,17.77
2023-03-14T00:57:46.448Z,17.81
2023-03-14T01:00:15.603Z,17.86
2023-03-14T01:02:43.041Z,17.68
2023-03-14T01:05:11.491Z,17.89
2023-03-14T01:07:38.570Z,17.89
2023-03-14T01:10:08.450Z,17.73
2023-03-14T01:12:35.605Z,17.81
2023-03-14T01:15:04.016Z,17.55
2023-03-14T01:17:33.081Z,17.51
2023-03-14T01:20:01.509Z,17.48
2023-03-14T01:22:30.444Z,17.54
2023-03-14T01:24:57.505Z,17.47
2023-03-14T01:27:25.167Z,17.50
2023-03-14T01:29:53.057Z,17.33
2023-03-14T01:32:20.033Z,17.28
2023-03-14T01:34:46.899Z,17.37
2023-03-14T01:37:14.299Z,17.43
2023-03-14T01:39:43.212Z,17.55
2023-03-14T01:42:10.652Z,17.43
2023-03-14T01:44:52.566Z,17.73
2023-03-14T01:47:20.736Z,17.89
2023-03-14T01:49:51.347Z,17.89
2023-03-14T01:52:25.886Z,17.95
2023-03-14T01:54:58.190Z,18.08
2023-03-14T01:57:30.732Z,18.06
2023-03-14T02:00:01.114Z,18.10
2023-03-14T02:02:29.902Z,18.10
2023-03-14T02:04:59.054Z,18.18
2023-03-14T02:07:40.637Z,18.28
2023-03-14T02:10:16.698Z,18.25
2023-03-14T02:12:44.569Z,18.18
2023-03-14T02:15:30.479Z,18.06
2023-03-14T02:18:07.538Z,17.86
2023-03-14T02:20:52.815Z,18.02
2023-03-14T02:23:35.049Z,18.22
2023-03-14T02:26:15.516Z,18.01
2023-03-14T02:28:44.272Z,18.06
2023-03-14T02:31:12.176Z,18.06
2023-03-14T02:33:39.777Z,18.13
2023-03-14T02:36:13.113Z,18.29
2023-03-14T02:38:48.601Z,18.26
2023-03-14T02:41:16.023Z,18.21
2023-03-14T02:43:50.721Z,18.26
2023-03-14T02:46:21.226Z,18.24
2023-03-14T02:48:52.953Z,18.21
2023-03-14T02:51:21.847Z,18.25
2023-03-14T02:53:49.421Z,18.21
2023-03-14T02:56:17.647Z,18.24
2023-03-14T02:58:44.998Z,18.22
2023-03-14T03:01:38.009Z,18.04
2023-03-14T03:04:06.236Z,17.95
2023-03-14T03:06:33.365Z,17.95
2023-03-14T03:09:03.418Z,17.88
2023-03-14T03:11:31.120Z,17.70
2023-03-14T03:13:58.072Z,17.75
2023-03-14T03:16:27.409Z,17.79
2023-03-14T03:18:55.836Z,17.68
2023-03-14T03:21:23.022Z,17.70
2023-03-14T03:23:50.936Z,17.67
2023-03-14T03:26:18.010Z,17.79
2023-03-14T03:28:45.077Z,17.68
2023-03-14T03:31:14.322Z,17.51
2023-03-14T03:33:41.358Z,17.58
2023-03-14T03:36:11.430Z,17.37
2023-03-14T03:38:40.072Z,17.53
2023-03-14T03:41:08.204Z,17.44
2023-03-14T03:43:36.723Z,17.53
2023-03-14T03:46:06.864Z,17.54
2023-03-14T03:48:36.207Z,17.34
2023-03-14T03:51:06.302Z,17.38
2023-03-14T03:53:35.667Z,17.36
2023-03-14T03:56:09.330Z,17.44
2023-03-14T03:58:36.584Z,17.44
2023-03-14T04:01:03.880Z,17.30
2023-03-14T04:03:31.141Z,17.33
2023-03-14T04:06:03.163Z,17.19
2023-03-14T04:08:35.554Z,17.17
2023-03-14T04:11:03.820Z,17.37
2023-03-14T04:13:46.150Z,17.37
2023-03-14T04:16:18.209Z,17.61
2023-03-14T04:18:45.229Z,17.44
2023-03-14T04:21:12.414Z,17.54
2023-03-14T04:23:47.132Z,17.78
2023-03-14T04:26:15.292Z,17.61
2023-03-14T04:28:42.478Z,17.67
2023-03-14T04:31:13.897Z,17.85
2023-03-14T04:33:44.135Z,17.57
2023-03-14T04:36:13.327Z,17.60
2023-03-14T04:38:40.724Z,17.31
2023-03-14T04:41:10.034Z,17.24
2023-03-14T04:43:37.134Z,17.09
2023-03-14T04:46:07.731Z,17.33
2023-03-14T04:48:35.264Z,17.37
2023-03-14T04:51:02.517Z,17.28
2023-03-14T04:53:33.250Z,17.24
2023-03-14T04:56:02.922Z,17.14
2023-03-14T04:58:37.821Z,16.85
2023-03-14T05:01:07.475Z,17.03
2023-03-14T05:03:40.877Z,16.89
2023-03-14T05:06:15.254Z,17.04
2023-03-14T05:09:20.878Z,17.09
2023-03-14T05:12:02.057Z,16.73
2023-03-14T05:14:52.992Z,16.92
2023-03-14T05:17:40.166Z,16.72
2023-03-14T05:20:33.821Z,16.63
2023-03-14T05:23:21.377Z,16.68
2023-03-14T05:26:03.166Z,16.69
2023-03-14T05:28:56.988Z,16.53
2023-03-14T05:31:46.745Z,16.36
2023-03-14T05:34:35.509Z,16.52
2023-03-14T05:37:21.316Z,16.62
2023-03-14T05:40:04.404Z,16.44
2023-03-14T05:42:47.971Z,16.05
2023-03-14T05:45:43.975Z,16.29
2023-03-14T05:48:25.648Z,16.20
2023-03-14T05:51:10.295Z,16.20
2023-03-14T05:54:06.319Z,16.00
2023-03-14T05:56:51.773Z,16.04
2023-03-14T05:59:33.269Z,15.86
2023-03-14T06:02:22.242Z,15.69
2023-03-14T06:04:59.931Z,15.93
2023-03-14T06:07:26.909Z,15.79
2023-03-14T06:09:53.881Z,15.90
2023-03-14T06:12:22.075Z,16.05
2023-03-14T06:14:49.092Z,16.11
2023-03-14T06:17:16.600Z,15.84
2023-03-14T06:19:52.638Z,16.00
2023-03-14T06:22:20.990Z,16.12
2023-03-14T06:24:48.180Z,16.22
2023-03-14T06:27:17.126Z,16.14
2023-03-14T06:29:44.327Z,16.18
2023-03-14T06:32:11.194Z,16.29
2023-03-14T06:34:39.155Z,16.29
2023-03-14T06:37:06.518Z,16.14
2023-03-14T06:39:34.909Z,15.91
2023-03-14T06:45:24.790Z,16.25
2023-03-14T06:47:53.048Z,16.14
2023-03-14T06:50:25.487Z,15.77
2023-03-14T06:52:53.270Z,15.86
2023-03-14T06:55:25.428Z,15.83
2023-03-14T06:57:53.699Z,15.94
2023-03-14T07:00:21.936Z,16.11
2023-03-14T07:02:51.274Z,16.21
2023-03-14T07:05:30.924Z,16.45
2023-03-14T07:07:58.178Z,16.44
2023-03-14T07:10:26.811Z,16.58
2023-03-14T07:12:54.138Z,16.36
2023-03-14T07:15:23.659Z,16.56
2023-03-14T07:17:56.314Z,16.69
2023-03-14T07:20:24.288Z,16.71
2023-03-14T07:22:52.188Z,16.44
2023-03-14T07:25:28.814Z,16.66
2023-03-14T07:27:55.719Z,16.85
2023-03-14T07:30:22.909Z,16.82
2023-03-14T07:32:50.581Z,16.87
2023-03-14T07:35:18.266Z,16.89
2023-03-14T07:37:45.359Z,16.90
2023-03-14T07:40:14.037Z,16.87
2023-03-14T07:42:42.692Z,16.94
2023-03-14T07:45:42.555Z,16.71
2023-03-14T07:48:10.100Z,16.72
2023-03-14T07:50:37.142Z,16.77
2023-03-14T07:53:04.024Z,16.66
2023-03-14T07:55:31.059Z,16.76
2023-03-14T07:57:59.326Z,16.73
2023-03-14T08:00:26.869Z,16.85
2023-03-14T08:02:53.858Z,16.59
2023-03-14T08:05:23.916Z,16.66
2023-03-14T08:07:50.838Z,16.68
2023-03-14T08:10:18.136Z,16.72
2023-03-14T08:12:44.957Z,16.25
2023-03-14T08:15:13.362Z,16.52
2023-03-14T08:17:40.295Z,16.62
2023-03-14T08:20:08.324Z,16.69
2023-03-14T08:22:35.354Z,16.79
2023-03-14T08:25:02.377Z,16.90
2023-03-14T08:27:29.291Z,17.02
2023-03-14T08:29:56.387Z,16.96
2023-03-14T08:32:24.639Z,16.92
2023-03-14T08:34:51.624Z,17.03
2023-03-14T08:37:26.245Z,17.34
2023-03-14T08:39:54.529Z,17.34
2023-03-14T08:42:21.692Z,17.23
2023-03-14T08:44:48.818Z,17.30
2023-03-14T08:47:15.784Z,17.51
2023-03-14T08:49:44.087Z,17.48
2023-03-14T08:52:11.100Z,17.34
2023-03-14T08:54:38.046Z,17.44
2023-03-14T08:57:04.856Z,17.51
2023-03-14T08:59:31.759Z,17.77
2023-03-14T09:01:58.648Z,17.86
2023-03-14T09:04:26.035Z,18.15
2023-03-14T09:06:54.459Z,18.22
2023-03-14T09:09:21.477Z,18.22
2023-03-14T09:11:48.304Z,18.09
2023-03-14T09:14:15.159Z,18.05
2023-03-14T09:16:42.094Z,18.16
2023-03-14T09:19:09.112Z,18.12
2023-03-14T09:21:36.171Z,17.86
2023-03-14T09:24:05.442Z,17.81
2023-03-14T09:26:32.531Z,17.74
2023-03-14T09:28:59.347Z,17.92
2023-03-14T09:31:26.454Z,17.65
2023-03-14T09:33:53.451Z,17.58
2023-03-14T09:36:20.593Z,17.36
2023-03-14T09:38:48.152Z,17.31
2023-03-14T09:41:22.466Z,17.53
2023-03-14T09:43:58.114Z,17.33
2023-03-14T09:46:25.321Z,16.99
2023-03-14T09:48:53.057Z,17.30
2023-03-14T09:51:21.716Z,17.48
2023-03-14T09:53:51.946Z,17.38
2023-03-14T09:56:24.028Z,17.40
2023-03-14T09:58:55.974Z,17.58
2023-03-14T10:01:29.381Z,17.65
2023-03-14T10:04:01.728Z,17.57
2023-03-14T10:06:31.605Z,17.43
2023-03-14T10:08:59.033Z,17.30
2023-03-14T10:11:27.417Z,17.26
2023-03-14T10:14:07.882Z,17.16
2023-03-14T10:16:38.440Z,17.14
2023-03-14T10:19:08.616Z,17.02
2023-03-14T10:21:41.313Z,16.85
2023-03-14T10:24:25.057Z,16.71
2023-03-14T10:26:56.478Z,16.55
2023-03-14T10:29:23.621Z,16.34
2023-03-14T10:31:56.405Z,16.22
2023-03-14T10:34:26.696Z,16.01
2023-03-14T10:36:56.932Z,15.87
2023-03-14T10:39:38.491Z,15.70
2023-03-14T10:42:17.921Z,15.52
2023-03-14T10:44:46.810Z,15.38
2023-03-14T10:47:22.828Z,15.40
2023-03-14T10:49:50.810Z,15.32
2023-03-14T10:52:30.900Z,15.29
2023-03-14T10:55:11.091Z,15.32
2023-03-14T10:57:41.938Z,15.36
2023-03-14T11:00:17.108Z,15.43
2023-03-14T11:03:09.744Z,15.52
2023-03-14T11:05:46.603Z,15.50
2023-03-14T11:08:23.470Z,15.59
2023-03-14T11:10:55.678Z,15.52
2023-03-14T11:13:27.196Z,15.40
2023-03-14T11:16:09.810Z,15.36
2023-03-14T11:19:15.704Z,15.46
2023-03-14T11:21:50.998Z,15.44
2023-03-14T11:24:37.687Z,15.57
2023-03-14T11:27:16.835Z,15.80
2023-03-14T11:29:56.454Z,15.91
2023-03-14T11:32:40.257Z,16.02
2023-03-14T11:35:23.478Z,16.17
2023-03-14T11:37:57.834Z,16.32
2023-03-14T11:40:28.508Z,16.48
2023-03-14T11:43:09.642Z,16.63
2023-03-14T11:45:42.084Z,16.72
2023-03-14T11:48:21.753Z,16.76
2023-03-14T11:50:53.945Z,16.66
2023-03-14T11:53:26.697Z,16.61
2023-03-14T11:55:54.251Z,16.68
2023-03-14T11:58:27.124Z,16.51
2023-03-14T12:00:58.488Z,16.49
2023-03-14T12:03:33.810Z,16.42
2023-03-14T12:06:14.717Z,16.38
2023-03-14T12:08:51.355Z,16.25
2023-03-14T12:11:33.191Z,16.32
2023-03-14T12:14:02.294Z,16.40
2023-03-14T12:16:41.078Z,16.55
2023-03-14T12:19:34.352Z,16.72
2023-03-14T12:22:25.922Z,16.71
2023-03-14T12:25:01.189Z,16.63
2023-03-14T12:28:17.037Z,16.62
2023-03-14T12:30:44.064Z,16.45
2023-03-14T12:33:36.227Z,16.44
2023-03-14T12:36:55.094Z,16.25
2023-03-14T12:39:36.583Z,16.05
2023-03-14T12:42:13.520Z,16.01
2023-03-14T12:44:48.656Z,16.07
2023-03-14T12:47:53.050Z,16.15
2023-03-14T12:50:29.886Z,16.04
2023-03-14T12:53:44.980Z,16.00
2023-03-14T12:56:29.090Z,15.97
2023-03-14T12:59:28.810Z,15.87
2023-03-14T13:02:00.907Z,15.81
2023-03-14T13:04:39.575Z,15.73
2023-03-14T13:07:13.936Z,15.77
2023-03-14T13:10:03.648Z,15.77
2023-03-14T13:12:39.511Z,15.70
2023-03-14T13:15:26.693Z,15.84
2023-03-14T13:18:00.687Z,16.02
2023-03-14T13:20:36.381Z,15.98
2023-03-14T13:23:05.190Z,15.89
2023-03-14T13:25:35.595Z,15.79
2023-03-14T13:28:04.872Z,15.64
2023-03-14T13:30:41.621Z,15.67
2023-03-14T13:33:15.874Z,15.69
2023-03-14T13:35:45.722Z,15.80
2023-03-14T13:38:23.691Z,15.94
2023-03-14T13:40:54.557Z,15.89
2023-03-14T13:43:29.581Z,15.91
2023-03-14T13:46:03.733Z,15.89
2023-03-14T13:48:34.356Z,15.86
2023-03-14T13:51:06.381Z,15.71
2023-03-14T13:53:43.767Z,15.84
2023-03-14T13:56:13.048Z,15.93
2023-03-14T13:58:41.634Z,16.14
2023-03-14T14:01:16.449Z,16.62
2023-03-14T14:03:46.460Z,17.03
2023-03-14T14:06:27.320Z,17.20
2023-03-14T14:09:00.039Z,16.99
2023-03-14T14:11:48.908Z,16.90
2023-03-14T14:14:26.309Z,16.61
2023-03-14T14:16:54.459Z,16.45
2023-03-14T14:19:24.288Z,16.36
2023-03-14T14:21:51.962Z,16.36
2023-03-14T14:24:25.614Z,16.31
2023-03-14T14:26:54.510Z,16.02
2023-03-14T14:29:29.165Z,15.96
2023-03-14T14:32:10.395Z,15.86
2023-03-14T14:34:43.050Z,15.74
2023-03-14T14:37:22.753Z,15.83
2023-03-14T14:39:53.479Z,15.69
2023-03-14T14:42:25.476Z,15.56
2023-03-14T14:45:20.684Z,15.43
2023-03-14T14:47:53.163Z,15.28
2023-03-14T14:50:30.721Z,15.19
2023-03-14T14:52:59.478Z,15.25
2023-03-14T14:55:34.816Z,15.19
2023-03-14T14:58:22.394Z,15.13
2023-03-14T15:00:57.390Z,14.95
2023-03-14T15:03:29.373Z,15.01
2023-03-14T15:05:56.380Z,14.99
2023-03-14T15:08:25.526Z,14.98
2023-03-14T15:10:54.346Z,15.06
2023-03-14T15:13:21.566Z,15.23
2023-03-14T15:15:50.165Z,15.50
2023-03-14T15:18:19.722Z,15.77
2023-03-14T15:20:47.026Z,16.10
2023-03-14T15:23:17.030Z,16.31
2023-03-14T15:25:55.148Z,16.41
2023-03-14T15:28:27.630Z,16.47
2023-03-14T15:30:57.794Z,16.22
2023-03-14T15:33:26.367Z,16.14
2023-03-14T15:35:53.710Z,16.05
2023-03-14T15:38:23.074Z,15.84
2023-03-14T15:40:52.939Z,15.67
2023-03-14T15:43:24.096Z,15.26
2023-03-14T15:45:52.496Z,15.23
2023-03-14T15:48:21.831Z,15.16
2023-03-14T15:50:48.739Z,15.05
2023-03-14T15:53:16.054Z,14.72
2023-03-14T15:55:42.861Z,14.74
2023-03-14T15:58:21.259Z,14.78
2023-03-14T16:00:49.640Z,14.74
2023-03-14T16:03:18.049Z,14.67
2023-03-14T16:05:45.373Z,14.74
2023-03-14T16:08:12.283Z,14.71
2023-03-14T16:10:39.149Z,14.42
2023-03-14T16:13:06.148Z,14.33
2023-03-14T16:15:33.010Z,14.12
2023-03-14T16:18:02.437Z,13.97
2023-03-14T16:20:47.181Z,13.66
2023-03-14T16:23:14.737Z,13.52
2023-03-14T16:25:41.661Z,13.52
2023-03-14T16:28:11.328Z,13.52
2023-03-14T16:30:38.634Z,13.32
2023-03-14T16:33:10.112Z,13.29
2023-03-14T16:35:41.420Z,13.24
2023-03-14T16:38:09.597Z,13.05
2023-03-14T16:40:36.713Z,12.95
2023-03-14T16:43:16.729Z,12.81
2023-03-14T16:45:43.568Z,12.76
2023-03-14T16:48:10.570Z,12.47
2023-03-14T16:50:40.985Z,12.60
2023-03-14T16:55:55.213Z,12.49
2023-03-14T16:58:22.778Z,12.43
2023-03-14T17:00:50.092Z,12.63
2023-03-14T17:03:18.252Z,12.56
2023-03-14T17:05:48.566Z,12.68
2023-03-14T17:08:16.179Z,12.61
2023-03-14T17:10:43.374Z,12.45
2023-03-14T17:13:10.575Z,12.46
2023-03-14T17:15:37.655Z,12.56
2023-03-14T17:18:06.160Z,12.59
2023-03-14T17:20:34.004Z,12.53
2023-03-14T17:23:02.196Z,12.60
2023-03-14T17:25:30.183Z,12.36
2023-03-14T17:27:57.267Z,12.49
2023-03-14T17:30:24.414Z,12.29
2023-03-14T17:32:51.573Z,12.09
2023-03-14T17:35:18.632Z,12.04
2023-03-14T17:37:46.198Z,11.96
2023-03-14T17:40:14.899Z,12.13
2023-03-14T17:42:47.314Z,11.86
2023-03-14T17:45:14.364Z,11.75
2023-03-14T17:47:41.538Z,11.81
2023-03-14T17:50:10.561Z,11.58
2023-03-14T17:52:37.526Z,11.38
2023-03-14T17:55:07.365Z,11.33
2023-03-14T17:57:37.103Z,11.40
2023-03-14T18:00:05.475Z,11.30
2023-03-14T18:02:34.911Z,11.07
2023-03-14T18:05:01.897Z,11.16
2023-03-14T18:07:29.170Z,11.24
2023-03-14T18:09:56.442Z,11.02
2023-03-14T18:12:23.340Z,11.02
2023-03-14T18:14:51.915Z,11.07
2023-03-14T18:17:18.854Z,11.13
2023-03-14T18:19:45.730Z,11.09
2023-03-14T18:22:12.730Z,10.88
2023-03-14T18:24:39.703Z,10.92
2023-03-14T18:27:07.318Z,10.96
2023-03-14T18:29:34.232Z,11.04
2023-03-14T18:32:02.638Z,11.10
2023-03-14T18:34:29.610Z,11.10
2023-03-14T18:36:56.621Z,11.16
2023-03-14T18:39:23.748Z,11.24
2023-03-14T18:41:50.893Z,11.14
2023-03-14T18:44:18.181Z,11.16
2023-03-14T18:46:46.972Z,11.06
2023-03-14T18:49:15.531Z,11.09
2023-03-14T18:51:42.596Z,10.59
2023-03-14T18:54:10.995Z,10.58
2023-03-14T18:56:39.247Z,10.82
2023-03-14T18:59:06.792Z,10.97
2023-03-14T19:01:34.844Z,10.93
2023-03-14T19:04:03.458Z,10.86
2023-03-14T19:06:32.804Z,10.84
2023-03-14T19:09:00.498Z,10.93
2023-03-14T19:11:28.022Z,10.96
2023-03-14T19:13:55.669Z,10.99
2023-03-14T19:16:23.068Z,10.88
2023-03-14T19:18:50.226Z,10.84
2023-03-14T19:21:27.985Z,10.95
2023-03-14T19:23:56.795Z,11.07
2023-03-14T19:26:24.345Z,11.17
2023-03-14T19:28:51.909Z,11.20
2023-03-14T19:31:19.379Z,11.19
2023-03-14T19:33:46.632Z,11.20
2023-03-14T19:36:23.161Z,10.86
2023-03-14T19:38:52.070Z,10.68
2023-03-14T19:41:22.670Z,10.69
2023-03-14T19:43:51.044Z,10.71
2023-03-14T19:46:18.385Z,10.80
2023-03-14T19:52:01.636Z,10.73
2023-03-14T19:54:28.673Z,10.72
2023-03-14T19:56:57.049Z,10.84
2023-03-14T19:59:23.996Z,10.61
2023-03-14T20:01:50.885Z,10.73
2023-03-14T20:04:17.918Z,10.71
2023-03-14T20:06:44.986Z,10.76
2023-03-14T20:09:11.942Z,10.69
2023-03-14T20:11:38.871Z,10.59
2023-03-14T20:14:07.670Z,10.66
2023-03-14T20:16:34.833Z,10.76
2023-03-14T20:19:04.538Z,10.80
2023-03-14T20:21:31.425Z,10.90
2023-03-14T20:23:58.647Z,10.62
2023-03-14T20:26:26.028Z,10.52
2023-03-14T20:28:53.124Z,10.59
2023-03-14T20:31:22.393Z,10.71
2023-03-14T20:33:51.417Z,10.45
2023-03-14T20:36:19.142Z,10.08
2023-03-14T20:38:46.123Z,9.93
2023-03-14T20:41:13.246Z,10.08
2023-03-14T20:43:40.125Z,10.17
2023-03-14T20:46:08.353Z,10.10
2023-03-14T20:48:37.001Z,10.15
2023-03-14T20:51:04.276Z,10.15
2023-03-14T20:53:31.522Z,10.27
2023-03-14T20:55:58.551Z,10.25
2023-03-14T20:58:26.826Z,10.08
2023-03-14T21:00:56.816Z,10.15
2023-03-14T21:03:25.511Z,10.25
2023-03-14T21:05:54.169Z,10.14
2023-03-14T21:08:23.944Z,10.22
2023-03-14T21:10:53.330Z,10.35
2023-03-14T21:13:20.917Z,10.42
2023-03-14T21:15:47.963Z,10.45
2023-03-14T21:18:15.034Z,10.46
2023-03-14T21:20:43.217Z,10.42
2023-03-14T21:23:12.144Z,10.55
2023-03-14T21:25:41.862Z,10.56
2023-03-14T21:28:10.080Z,10.51
2023-03-14T21:30:37.319Z,9.97
2023-03-14T21:33:04.602Z,9.87
2023-03-14T21:35:31.520Z,9.86
2023-03-14T21:37:58.655Z,9.90
2023-03-14T21:40:26.965Z,9.89
2023-03-14T21:42:54.294Z,9.93
2023-03-14T21:45:25.679Z,9.97
2023-03-14T21:47:52.746Z,9.89
2023-03-14T21:50:20.266Z,9.95
2023-03-14T21:52:47.198Z,9.98
2023-03-14T21:55:14.461Z,9.81
2023-03-14T21:57:43.277Z,9.77
2023-03-14T22:00:12.260Z,9.83
2023-03-14T22:02:40.634Z,9.79
2023-03-14T22:05:10.656Z,9.70
2023-03-14T22:07:37.950Z,9.98
2023-03-14T22:10:05.761Z,9.90
2023-03-14T22:12:32.594Z,10.07
2023-03-14T22:15:00.984Z,10.12
2023-03-14T22:17:28.002Z,10.18
2023-03-14T22:19:54.983Z,10.24
2023-03-14T22:22:21.858Z,10.21
2023-03-14T22:24:49.124Z,10.31
2023-03-14T22:27:16.156Z,10.38
2023-03-14T22:29:43.355Z,10.24
2023-03-14T22:32:12.606Z,10.32
2023-03-14T22:34:39.518Z,10.27
2023-03-14T22:37:07.612Z,10.18
2023-03-14T22:39:35.244Z,10.12
2023-03-14T22:42:02.176Z,10.07
2023-03-14T22:44:54.305Z,9.80
2023-03-14T22:47:22.906Z,9.63
2023-03-14T22:49:49.854Z,9.47
2023-03-14T22:52:16.893Z,9.33
2023-03-14T22:54:44.207Z,8.91
2023-03-14T22:57:11.479Z,9.35
2023-03-14T22:59:38.454Z,9.43
2023-03-14T23:02:05.800Z,9.57
2023-03-14T23:04:34.298Z,9.40
2023-03-14T23:07:01.544Z,9.51
2023-03-14T23:09:28.455Z,9.42
2023-03-14T23:11:55.369Z,9.43
2023-03-14T23:14:22.544Z,9.53
2023-03-14T23:16:49.862Z,9.54
2023-03-14T23:19:17.031Z,9.46
2023-03-14T23:21:45.438Z,9.32
2023-03-14T23:24:12.242Z,9.40
2023-03-14T23:26:39.098Z,9.28
2023-03-14T23:29:06.335Z,9.59
2023-03-14T23:31:33.817Z,9.49
2023-03-14T23:34:00.987Z,9.51
2023-03-14T23:36:28.112Z,9.61
2023-03-14T23:38:56.799Z,9.46
2023-03-14T23:41:23.927Z,9.54
2023-03-14T23:43:50.806Z,9.56
2023-03-14T23:46:17.871Z,9.22
2023-03-14T23:48:44.820Z,9.40
2023-03-14T23:51:12.404Z,9.36
2023-03-14T23:53:40.130Z,9.39
2023-03-14T23:56:10.909Z,9.56
2023-03-14T23:58:37.900Z,9.54
